createdAt,value
2022-12-25T00:01:32.180Z,11.25
2022-12-25T00:03:59.589Z,8.73
2022-12-25T00:06:26.467Z,7.32
2022-12-25T00:08:53.274Z,6.75
2022-12-25T00:11:20.833Z,6.75
2022-12-25T00:13:48.629Z,9.70
2022-12-25T00:16:23.437Z,6.85
2022-12-25T00:18:51.358Z,8.23
2022-12-25T00:21:20.183Z,8.52
2022-12-25T00:23:47.091Z,8.20
2022-12-25T00:26:17.325Z,8.15
2022-12-25T00:28:44.528Z,7.80
2022-12-25T00:31:17.593Z,7.65
2022-12-25T00:33:47.890Z,6.65
2022-12-25T00:36:19.040Z,8.43
2022-12-25T00:38:46.989Z,13.95
2022-12-25T00:41:38.624Z,8.18
2022-12-25T00:44:06.997Z,9.70
2022-12-25T00:46:33.841Z,8.48
2022-12-25T00:49:01.100Z,9.95
2022-12-25T00:51:28.301Z,9.35
2022-12-25T00:53:55.026Z,9.20
2022-12-25T00:56:21.766Z,8.20
2022-12-25T00:58:48.558Z,7.85
2022-12-25T01:01:15.444Z,6.97
2022-12-25T01:03:42.318Z,9.95
2022-12-25T01:06:12.747Z,7.43
2022-12-25T01:09:04.984Z,9.43
2022-12-25T01:11:32.241Z,9.90
2022-12-25T01:13:59.301Z,8.10
2022-12-25T01:16:26.457Z,10.43
2022-12-25T01:18:53.264Z,7.68
2022-12-25T01:21:21.315Z,8.55
2022-12-25T01:23:52.448Z,8.82
2022-12-25T01:26:25.034Z,9.93
2022-12-25T01:28:52.237Z,8.77
2022-12-25T01:31:22.816Z,8.27
2022-12-25T01:33:50.818Z,8.95
2022-12-25T01:36:27.342Z,8.32
2022-12-25T01:38:54.911Z,9.82
2022-12-25T01:41:25.233Z,9.15
2022-12-25T01:44:16.113Z,9.57
2022-12-25T01:46:43.977Z,11.45
2022-12-25T01:49:22.368Z,7.93
2022-12-25T01:51:59.245Z,13.57
2022-12-25T01:54:32.010Z,9.73
2022-12-25T01:57:04.713Z,10.35
2022-12-25T01:59:31.487Z,8.85
2022-12-25T02:02:00.692Z,8.48
2022-12-25T02:04:40.917Z,9.48
2022-12-25T02:07:22.362Z,10.07
2022-12-25T02:09:50.351Z,12.63
2022-12-25T02:12:30.381Z,13.13
2022-12-25T02:15:06.141Z,9.88
2022-12-25T02:18:05.945Z,9.68
2022-12-25T02:20:52.893Z,9.23
2022-12-25T02:23:55.658Z,11.77
2022-12-25T02:26:51.158Z,8.93
2022-12-25T02:29:32.389Z,9.60
2022-12-25T02:32:23.986Z,11.70
2022-12-25T02:35:07.652Z,9.50
2022-12-25T02:37:55.556Z,9.18
2022-12-25T02:40:33.525Z,11.73
2022-12-25T02:43:27.701Z,10.88
2022-12-25T02:46:22.311Z,8.48
2022-12-25T02:49:16.106Z,9.52
2022-12-25T02:52:09.674Z,10.50
2022-12-25T02:55:06.378Z,8.98
2022-12-25T02:58:01.846Z,10.43
2022-12-25T03:00:49.958Z,8.30
2022-12-25T03:03:36.779Z,11.18
2022-12-25T03:06:25.574Z,9.85
2022-12-25T03:09:17.968Z,11.90
2022-12-25T03:11:48.269Z,10.73
2022-12-25T03:14:33.552Z,10.07
2022-12-25T03:17:00.970Z,11.18
2022-12-25T03:19:53.342Z,8.57
2022-12-25T03:22:48.568Z,10.93
2022-12-25T03:25:35.578Z,7.30
2022-12-25T03:28:05.024Z,8.15
2022-12-25T03:31:08.505Z,10.18
2022-12-25T03:34:23.431Z,8.02
2022-12-25T03:38:15.179Z,9.77
2022-12-25T03:41:34.256Z,7.78
2022-12-25T03:44:45.713Z,8.75
2022-12-25T03:47:48.837Z,7.93
2022-12-25T03:50:52.460Z,8.98
2022-12-25T03:53:48.910Z,11.38
2022-12-25T03:56:36.974Z,9.60
2022-12-25T03:59:24.128Z,8.30
2022-12-25T04:02:10.588Z,10.23
2022-12-25T04:04:56.905Z,10.77
2022-12-25T04:07:42.418Z,10.32
2022-12-25T04:10:28.371Z,7.80
2022-12-25T04:13:13.845Z,7.30
2022-12-25T04:15:59.270Z,10.00
2022-12-25T04:18:44.696Z,8.43
2022-12-25T04:21:30.215Z,8.32
2022-12-25T04:24:29.303Z,9.48
2022-12-25T04:27:15.434Z,9.73
2022-12-25T04:30:00.697Z,9.25
2022-12-25T04:32:46.157Z,9.95
2022-12-25T04:35:31.510Z,6.10
2022-12-25T04:37:58.266Z,7.13
2022-12-25T04:40:24.982Z,8.70
2022-12-25T04:42:52.731Z,9.05
2022-12-25T04:45:19.669Z,9.50
2022-12-25T04:47:46.435Z,9.15
2022-12-25T04:50:14.036Z,8.18
2022-12-25T04:52:41.274Z,9.70
2022-12-25T04:55:11.046Z,9.85
2022-12-25T04:57:38.638Z,8.27
2022-12-25T05:00:06.588Z,10.18
2022-12-25T05:02:33.567Z,8.35
2022-12-25T05:05:00.594Z,9.88
2022-12-25T05:07:27.320Z,8.70
2022-12-25T05:09:54.062Z,12.68
2022-12-25T05:12:20.837Z,11.32
2022-12-25T05:14:47.574Z,9.30
2022-12-25T05:17:14.316Z,8.02
2022-12-25T05:19:41.117Z,8.25
2022-12-25T05:22:08.253Z,7.93
2022-12-25T05:24:34.999Z,10.00
2022-12-25T05:27:01.797Z,8.18
2022-12-25T05:29:28.553Z,8.18
2022-12-25T05:31:55.302Z,10.93
2022-12-25T05:34:22.143Z,11.88
2022-12-25T05:36:48.852Z,11.02
2022-12-25T05:39:15.569Z,11.55
2022-12-25T05:41:42.765Z,8.40
2022-12-25T05:44:09.543Z,9.20
2022-12-25T05:46:36.707Z,10.70
2022-12-25T05:49:05.600Z,8.70
2022-12-25T05:51:32.728Z,10.05
2022-12-25T05:53:59.647Z,8.05
2022-12-25T05:56:27.736Z,9.15
2022-12-25T05:58:54.916Z,8.27
2022-12-25T06:01:25.019Z,7.53
2022-12-25T06:03:52.008Z,9.50
2022-12-25T06:06:19.633Z,7.35
2022-12-25T06:08:46.755Z,10.82
2022-12-25T06:11:15.411Z,10.55
2022-12-25T06:13:42.561Z,9.48
2022-12-25T06:16:11.909Z,10.65
2022-12-25T06:18:43.566Z,13.07
2022-12-25T06:21:13.922Z,11.73
2022-12-25T06:23:42.280Z,10.45
2022-12-25T06:26:13.553Z,9.23
2022-12-25T06:28:41.057Z,15.82
2022-12-25T06:31:14.475Z,10.50
2022-12-25T06:33:42.477Z,12.77
2022-12-25T06:36:29.463Z,14.93
2022-12-25T06:38:56.750Z,11.15
2022-12-25T06:41:27.028Z,10.57
2022-12-25T06:43:59.979Z,9.07
2022-12-25T06:46:29.417Z,8.25
2022-12-25T06:48:59.406Z,7.88
2022-12-25T06:51:29.478Z,10.13
2022-12-25T06:53:57.247Z,10.73
2022-12-25T06:56:28.518Z,8.15
2022-12-25T06:59:01.999Z,11.43
2022-12-25T07:01:34.449Z,8.77
2022-12-25T07:04:05.643Z,6.43
2022-12-25T07:06:34.203Z,8.63
2022-12-25T07:09:00.933Z,8.32
2022-12-25T07:11:27.683Z,7.80
2022-12-25T07:13:54.580Z,6.32
2022-12-25T07:16:21.437Z,6.72
2022-12-25T07:18:48.230Z,7.55
2022-12-25T07:21:19.040Z,6.95
2022-12-25T07:23:49.169Z,7.32
2022-12-25T07:26:17.379Z,7.90
2022-12-25T07:28:44.726Z,6.63
2022-12-25T07:31:16.136Z,7.65
2022-12-25T07:33:43.029Z,8.70
2022-12-25T07:36:13.035Z,6.72
2022-12-25T07:38:41.949Z,6.45
2022-12-25T07:41:13.302Z,6.88
2022-12-25T07:43:41.302Z,9.15
2022-12-25T07:46:08.751Z,9.73
2022-12-25T07:48:36.417Z,9.20
2022-12-25T07:51:07.001Z,6.90
2022-12-25T07:53:37.052Z,6.03
2022-12-25T07:56:08.297Z,9.30
2022-12-25T07:58:35.622Z,7.18
2022-12-25T08:01:11.291Z,6.72
2022-12-25T08:03:38.570Z,8.60
2022-12-25T08:06:11.791Z,6.63
2022-12-25T08:08:40.184Z,6.50
2022-12-25T08:11:09.704Z,6.70
2022-12-25T08:13:37.494Z,12.93
2022-12-25T08:16:08.707Z,9.05
2022-12-25T08:18:37.062Z,8.10
2022-12-25T08:21:15.319Z,16.73
2022-12-25T08:23:45.675Z,11.43
2022-12-25T08:26:18.359Z,8.23
2022-12-25T08:28:45.873Z,16.85
2022-12-25T08:31:25.807Z,9.30
2022-12-25T08:33:56.418Z,10.05
2022-12-25T08:36:24.228Z,8.30
2022-12-25T08:38:53.475Z,7.75
2022-12-25T08:41:23.051Z,8.32
2022-12-25T08:43:50.086Z,9.05
2022-12-25T08:46:16.994Z,6.63
2022-12-25T08:48:46.160Z,7.18
2022-12-25T08:51:16.589Z,5.72
2022-12-25T08:53:45.332Z,5.88
2022-12-25T08:56:13.782Z,6.70
2022-12-25T08:58:41.526Z,5.65
2022-12-25T09:01:08.802Z,8.80
2022-12-25T09:03:35.833Z,9.15
2022-12-25T09:06:10.356Z,5.97
2022-12-25T09:08:42.552Z,8.68
2022-12-25T09:11:15.871Z,7.85
2022-12-25T09:13:42.637Z,9.48
2022-12-25T09:16:13.424Z,8.13
2022-12-25T09:18:40.814Z,11.10
2022-12-25T09:21:12.243Z,11.55
2022-12-25T09:23:39.606Z,9.32
2022-12-25T09:26:10.955Z,10.85
2022-12-25T09:28:37.789Z,11.13
2022-12-25T09:31:04.770Z,13.00
2022-12-25T09:33:31.547Z,12.77
2022-12-25T09:36:05.944Z,10.15
2022-12-25T09:38:34.182Z,12.43
2022-12-25T09:41:14.506Z,12.73
2022-12-25T09:43:54.997Z,12.15
2022-12-25T09:46:34.704Z,10.15
2022-12-25T09:49:23.690Z,11.90
2022-12-25T09:51:59.226Z,11.77
2022-12-25T09:54:44.320Z,8.90
2022-12-25T09:57:13.756Z,9.93
2022-12-25T09:59:44.760Z,12.77
2022-12-25T10:02:55.158Z,8.70
2022-12-25T10:05:46.475Z,11.45
2022-12-25T10:09:02.952Z,9.82
2022-12-25T10:12:02.842Z,10.05
2022-12-25T10:15:05.232Z,12.85
2022-12-25T10:18:26.809Z,10.10
2022-12-25T10:20:56.692Z,13.35
2022-12-25T10:23:30.576Z,15.65
2022-12-25T10:25:57.287Z,12.23
2022-12-25T10:28:34.872Z,14.30
2022-12-25T10:31:18.790Z,16.88
2022-12-25T10:33:46.163Z,13.82
2022-12-25T10:36:14.045Z,14.43
2022-12-25T10:38:40.781Z,13.93
2022-12-25T10:41:29.454Z,18.10
2022-12-25T10:43:57.845Z,15.88
2022-12-25T10:46:28.997Z,13.45
2022-12-25T10:49:04.071Z,13.07
2022-12-25T10:51:38.493Z,12.85
2022-12-25T10:54:25.535Z,14.45
2022-12-25T10:57:18.378Z,15.23
2022-12-25T10:59:56.558Z,11.27
2022-12-25T11:02:30.612Z,13.63
2022-12-25T11:05:31.351Z,15.05
2022-12-25T11:08:02.163Z,14.02
2022-12-25T11:10:42.213Z,15.80
2022-12-25T11:13:25.128Z,11.40
2022-12-25T11:16:06.513Z,13.82
2022-12-25T11:18:45.023Z,15.07
2022-12-25T11:21:28.691Z,11.27
2022-12-25T11:24:06.033Z,12.05
2022-12-25T11:26:48.474Z,11.30
2022-12-25T11:29:46.980Z,11.27
2022-12-25T11:32:29.587Z,9.23
2022-12-25T11:34:58.732Z,12.73
2022-12-25T11:37:38.340Z,10.30
2022-12-25T11:40:06.907Z,11.38
2022-12-25T11:42:37.722Z,11.88
2022-12-25T11:45:30.093Z,10.07
2022-12-25T11:48:19.384Z,9.85
2022-12-25T11:50:53.722Z,11.25
2022-12-25T11:53:45.812Z,10.75
2022-12-25T11:56:22.822Z,10.27
2022-12-25T11:59:18.137Z,9.98
2022-12-25T12:02:00.265Z,9.35
2022-12-25T12:04:43.331Z,9.32
2022-12-25T12:07:26.705Z,9.55
2022-12-25T12:10:21.434Z,9.52
2022-12-25T12:13:15.623Z,8.32
2022-12-25T12:15:46.523Z,8.88
2022-12-25T12:18:29.252Z,7.70
2022-12-25T12:21:03.875Z,6.97
2022-12-25T12:23:57.181Z,6.80
2022-12-25T12:26:27.723Z,7.45
2022-12-25T12:29:02.033Z,6.57
2022-12-25T12:31:48.760Z,8.13
2022-12-25T12:34:27.584Z,7.80
2022-12-25T12:37:05.835Z,7.25
2022-12-25T12:39:40.343Z,7.40
2022-12-25T12:42:22.447Z,8.73
2022-12-25T12:44:50.370Z,7.63
2022-12-25T12:47:40.367Z,7.18
2022-12-25T12:50:36.554Z,7.55
2022-12-25T12:53:24.232Z,9.30
2022-12-25T12:55:52.797Z,8.02
2022-12-25T12:58:35.559Z,9.70
2022-12-25T13:01:20.744Z,8.32
2022-12-25T13:04:31.453Z,8.40
2022-12-25T13:08:03.049Z,9.10
2022-12-25T13:10:41.219Z,9.52
2022-12-25T13:13:25.909Z,10.38
2022-12-25T13:15:53.468Z,8.00
2022-12-25T13:18:20.899Z,7.65
2022-12-25T13:21:00.290Z,8.63
2022-12-25T13:23:35.171Z,6.97
2022-12-25T13:26:06.496Z,8.38
2022-12-25T13:28:36.531Z,7.97
2022-12-25T13:31:14.161Z,6.95
2022-12-25T13:33:46.568Z,6.22
2022-12-25T13:36:14.412Z,7.45
2022-12-25T13:38:51.862Z,11.30
2022-12-25T13:41:41.202Z,7.97
2022-12-25T13:44:22.518Z,7.30
2022-12-25T13:46:49.367Z,6.68
2022-12-25T13:49:21.456Z,9.00
2022-12-25T13:51:49.643Z,8.10
2022-12-25T13:54:18.641Z,7.40
2022-12-25T13:56:55.802Z,6.80
2022-12-25T13:59:25.689Z,7.22
2022-12-25T14:01:54.132Z,9.10
2022-12-25T14:04:24.320Z,8.68
2022-12-25T14:06:52.722Z,9.30
2022-12-25T14:09:20.389Z,9.27
2022-12-25T14:11:52.225Z,8.07
2022-12-25T14:14:25.846Z,7.70
2022-12-25T14:16:57.538Z,6.47
2022-12-25T14:19:33.836Z,8.07
2022-12-25T14:22:24.734Z,6.72
2022-12-25T14:24:51.705Z,6.80
2022-12-25T14:27:24.749Z,7.13
2022-12-25T14:29:55.835Z,8.27
2022-12-25T14:32:27.572Z,9.60
2022-12-25T14:35:01.605Z,11.15
2022-12-25T14:37:32.401Z,10.65
2022-12-25T14:40:03.333Z,10.35
2022-12-25T14:42:34.927Z,11.43
2022-12-25T14:45:34.505Z,10.68
2022-12-25T14:48:22.853Z,11.60
2022-12-25T14:51:00.160Z,9.70
2022-12-25T14:53:50.943Z,12.70
2022-12-25T14:56:21.056Z,10.00
2022-12-25T14:59:00.990Z,10.25
2022-12-25T15:01:40.140Z,10.23
2022-12-25T15:04:09.816Z,11.48
2022-12-25T15:06:40.795Z,10.73
2022-12-25T15:09:16.752Z,9.43
2022-12-25T15:11:43.496Z,14.55
2022-12-25T15:14:10.217Z,17.40
2022-12-25T15:16:48.187Z,26.92
2022-12-25T15:19:30.421Z,24.35
2022-12-25T15:22:01.608Z,20.60
2022-12-25T15:24:28.360Z,18.08
2022-12-25T15:26:55.392Z,16.63
2022-12-25T15:29:44.709Z,14.70
2022-12-25T15:32:23.525Z,13.98
2022-12-25T15:34:50.616Z,13.85
2022-12-25T15:37:19.049Z,12.20
2022-12-25T15:39:46.671Z,10.80
2022-12-25T15:42:21.995Z,12.30
2022-12-25T15:44:48.772Z,9.80
2022-12-25T15:47:19.896Z,10.02
2022-12-25T15:49:46.730Z,10.77
2022-12-25T15:52:16.751Z,9.88
2022-12-25T15:54:43.872Z,13.75
2022-12-25T15:57:23.059Z,11.20
2022-12-25T15:59:49.848Z,10.27
2022-12-25T16:02:20.809Z,9.68
2022-12-25T16:04:48.900Z,10.32
2022-12-25T16:07:19.227Z,9.43
2022-12-25T16:09:46.297Z,9.00
2022-12-25T16:12:13.315Z,9.52
2022-12-25T16:14:40.126Z,7.25
2022-12-25T16:17:07.258Z,7.90
2022-12-25T16:19:34.065Z,7.97
2022-12-25T16:22:00.814Z,9.57
2022-12-25T16:24:27.547Z,7.10
2022-12-25T16:26:54.291Z,8.02
2022-12-25T16:29:21.076Z,7.05
2022-12-25T16:31:48.116Z,10.05
2022-12-25T16:34:15.923Z,7.85
2022-12-25T16:36:42.688Z,8.88
2022-12-25T16:39:09.409Z,8.02
2022-12-25T16:41:36.169Z,6.50
2022-12-25T16:44:10.025Z,7.93
2022-12-25T16:46:39.714Z,10.80
2022-12-25T16:49:06.794Z,7.43
2022-12-25T16:51:33.655Z,7.13
2022-12-25T16:54:00.446Z,8.35
2022-12-25T16:56:28.468Z,8.70
2022-12-25T16:58:57.200Z,8.38
2022-12-25T17:01:25.328Z,9.07
2022-12-25T17:03:52.654Z,9.25
2022-12-25T17:06:28.192Z,9.30
2022-12-25T17:08:59.815Z,8.82
2022-12-25T17:11:29.801Z,9.77
2022-12-25T17:14:00.374Z,8.77
2022-12-25T17:16:36.326Z,7.65
2022-12-25T17:19:09.575Z,8.32
2022-12-25T17:21:38.143Z,7.63
2022-12-25T17:24:05.444Z,6.97
2022-12-25T17:26:32.956Z,7.82
2022-12-25T17:29:00.139Z,8.52
2022-12-25T17:31:27.866Z,6.78
2022-12-25T17:33:54.800Z,7.78
2022-12-25T17:36:23.872Z,8.43
2022-12-25T17:38:50.633Z,9.45
2022-12-25T17:41:19.242Z,8.40
2022-12-25T17:43:47.390Z,9.07
2022-12-25T17:46:27.023Z,8.50
2022-12-25T17:48:57.192Z,10.30
2022-12-25T17:51:27.738Z,10.05
2022-12-25T17:53:58.876Z,8.05
2022-12-25T17:56:25.947Z,7.07
2022-12-25T17:59:00.008Z,6.53
2022-12-25T18:01:28.390Z,6.85
2022-12-25T18:03:56.025Z,8.32
2022-12-25T18:06:25.284Z,7.90
2022-12-25T18:08:54.552Z,7.97
2022-12-25T18:11:27.626Z,8.00
2022-12-25T18:13:54.985Z,7.40
2022-12-25T18:16:25.308Z,7.25
2022-12-25T18:18:53.118Z,8.57
2022-12-25T18:21:23.509Z,7.45
2022-12-25T18:23:50.635Z,6.47
2022-12-25T18:26:18.752Z,7.05
2022-12-25T18:28:46.154Z,5.85
2022-12-25T18:31:22.814Z,6.75
2022-12-25T18:33:50.421Z,6.88
2022-12-25T18:36:22.196Z,9.25
2022-12-25T18:38:52.241Z,8.43
2022-12-25T18:41:21.633Z,8.88
2022-12-25T18:43:53.428Z,6.85
2022-12-25T18:46:24.750Z,6.10
2022-12-25T18:48:52.420Z,8.00
2022-12-25T18:51:19.322Z,7.85
2022-12-25T18:53:46.201Z,7.97
2022-12-25T18:56:17.507Z,5.93
2022-12-25T18:58:45.699Z,6.57
2022-12-25T19:01:18.121Z,5.82
2022-12-25T19:03:46.183Z,6.80
2022-12-25T19:06:27.064Z,6.28
2022-12-25T19:08:55.719Z,5.75
2022-12-25T19:11:23.022Z,5.65
2022-12-25T19:13:49.915Z,6.70
2022-12-25T19:16:16.903Z,7.43
2022-12-25T19:18:43.817Z,5.25
2022-12-25T19:21:10.947Z,7.50
2022-12-25T19:23:38.305Z,6.72
2022-12-25T19:26:07.317Z,5.53
2022-12-25T19:28:35.132Z,6.05
2022-12-25T19:31:02.826Z,6.03
2022-12-25T19:33:31.987Z,6.97
2022-12-25T19:36:04.276Z,5.15
2022-12-25T19:38:31.189Z,8.30
2022-12-25T19:41:01.481Z,5.22
2022-12-25T19:43:33.863Z,6.22
2022-12-25T19:46:01.988Z,5.20
2022-12-25T19:48:31.263Z,6.35
2022-12-25T19:50:58.153Z,7.15
2022-12-25T19:53:25.500Z,6.35
2022-12-25T19:55:53.681Z,7.57
2022-12-25T19:58:22.860Z,6.57
2022-12-25T20:01:09.097Z,6.57
2022-12-25T20:03:45.521Z,6.57
2022-12-25T20:06:24.756Z,6.18
2022-12-25T20:08:57.918Z,6.03
2022-12-25T20:11:27.836Z,6.63
2022-12-25T20:13:55.463Z,7.22
2022-12-25T20:16:23.729Z,9.50
2022-12-25T20:18:51.512Z,7.90
2022-12-25T20:21:22.119Z,7.32
2022-12-25T20:23:52.152Z,7.80
2022-12-25T20:26:22.849Z,8.90
2022-12-25T20:28:50.322Z,7.82
2022-12-25T20:31:30.517Z,7.15
2022-12-25T20:34:08.561Z,7.30
2022-12-25T20:36:37.578Z,8.88
2022-12-25T20:39:09.485Z,7.53
2022-12-25T20:41:37.028Z,6.57
2022-12-25T20:44:06.316Z,8.43
2022-12-25T20:46:33.148Z,7.88
2022-12-25T20:49:02.668Z,6.57
2022-12-25T20:51:29.474Z,7.20
2022-12-25T20:53:56.273Z,7.43
2022-12-25T20:56:26.008Z,6.60
2022-12-25T20:58:56.396Z,6.65
2022-12-25T21:01:23.320Z,7.38
2022-12-25T21:03:50.569Z,8.32
2022-12-25T21:06:17.369Z,7.32
2022-12-25T21:08:44.171Z,7.78
2022-12-25T21:11:11.480Z,7.30
2022-12-25T21:13:41.278Z,8.40
2022-12-25T21:16:12.996Z,8.25
2022-12-25T21:18:40.002Z,6.57
2022-12-25T21:21:08.336Z,8.18
2022-12-25T21:23:38.641Z,7.90
2022-12-25T21:26:23.676Z,8.00
2022-12-25T21:28:55.562Z,7.15
2022-12-25T21:31:23.143Z,7.97
2022-12-25T21:33:53.310Z,8.10
2022-12-25T21:36:27.537Z,8.07
2022-12-25T21:38:58.380Z,9.48
2022-12-25T21:41:27.234Z,8.50
2022-12-25T21:43:55.120Z,6.45
2022-12-25T21:46:22.568Z,7.38
2022-12-25T21:48:49.739Z,6.15
2022-12-25T21:51:51.215Z,10.20
2022-12-25T21:54:22.116Z,6.90
2022-12-25T21:56:49.781Z,6.60
2022-12-25T21:59:20.952Z,6.03
2022-12-25T22:01:49.641Z,8.18
2022-12-25T22:04:19.903Z,6.53
2022-12-25T22:07:07.090Z,5.65
2022-12-25T22:09:33.990Z,6.53
2022-12-25T22:12:20.705Z,7.00
2022-12-25T22:14:54.173Z,6.57
2022-12-25T22:17:49.879Z,7.22
2022-12-25T22:20:22.852Z,7.63
2022-12-25T22:22:50.104Z,6.47
2022-12-25T22:25:18.031Z,5.57
2022-12-25T22:27:46.791Z,5.80
2022-12-25T22:30:24.441Z,6.75
2022-12-25T22:32:52.404Z,5.68
2022-12-25T22:35:20.713Z,6.43
2022-12-25T22:37:48.226Z,8.60
2022-12-25T22:40:19.199Z,7.68
2022-12-25T22:42:46.529Z,5.97
2022-12-25T22:45:14.232Z,6.78
2022-12-25T22:47:41.516Z,7.75
2022-12-25T22:50:09.598Z,5.57
2022-12-25T22:52:37.488Z,5.90
2022-12-25T22:55:05.635Z,5.80
2022-12-25T22:57:32.389Z,5.75
2022-12-25T22:59:59.987Z,5.68
2022-12-25T23:02:27.048Z,6.35
2022-12-25T23:04:54.135Z,6.90
2022-12-25T23:07:21.315Z,5.55
2022-12-25T23:09:48.127Z,7.20
2022-12-25T23:12:33.371Z,4.93
2022-12-25T23:15:00.221Z,5.22
2022-12-25T23:17:45.410Z,4.30
2022-12-25T23:20:33.602Z,4.45
2022-12-25T23:23:19.267Z,5.90
2022-12-25T23:26:04.716Z,4.50
2022-12-25T23:28:50.699Z,4.15
2022-12-25T23:31:17.738Z,4.97
2022-12-25T23:33:44.538Z,5.22
2022-12-25T23:36:11.340Z,4.53
2022-12-25T23:38:38.089Z,4.18
2022-12-25T23:41:04.811Z,3.97
2022-12-25T23:43:31.573Z,3.35
2022-12-25T23:45:58.295Z,4.47
2022-12-25T23:48:24.999Z,4.38
2022-12-25T23:50:51.753Z,4.65
2022-12-25T23:53:18.481Z,5.28
2022-12-25T23:55:50.060Z,3.55
2022-12-25T23:58:20.187Z,4.75
